Aérodrome :
LOGIN :

S'inscrire | Disclaimer

   EN    FR    IT 

 










Légende :    VFR   VFR Marginal   IFR   IFR Intensif   IFR Très Intensif
Visi : 
Plafond : 
>= 8 km
>= 3000ft
5 à 8 km
1000 à 3000 ft
1500m à 5 km
500 à 1000 ft
800 à 1500m
200 à 500 ft
< 800m
< 200 ft
Symboles :   Orages  Brouillard  Fortes neiges  Fortes précipitations  Vent > 20 kt
SIGMETs :   Divers  Orages  Givrage  Turbulence  Onde Orograph.  Cendres Volcan.







- Altitude de l'aérodrome : 15 ft
- Code IATA : FCO


LIRF - Roma Leonardo da Vinci Fiumicino

DERNIER METAR :
  • 162250Z VRB02KT CAVOK 22/16 Q1015 NOSIG

METARs EXPIRÉS :
  • 162220Z 28004KT 250V320 CAVOK 22/15 Q1015 NOSIG
  • 162150Z 25003KT CAVOK 24/14 Q1015 NOSIG
  • 162120Z 27003KT CAVOK 25/13 Q1015 NOSIG
  • 162050Z VRB02KT CAVOK 26/13 Q1016 NOSIG
  • 162020Z VRB03KT CAVOK 25/13 Q1016 NOSIG

TAF TAF LIRF
Valide du 16 à 18h jusqu'au 18 à 00h UTC


161700Z 1618/1724 29013KT CAVOK
BECMG 1618/1620 VRB04KT
BECMG 1709/1711 26012KT
BECMG 1718/1720 VRB04KT
Pas de NOTAMs connus pour ce terrain.



MET'MAP, la Météo Aéronautique d'un coup d'oeil ! - Copyright ORBIFLY Décembre 2007 - Disclaimer

ORBIFLY MET'MAP TEAM :

Programmation & Développement : Alexandra Zaïnal
Conception & Développement : Baudouin d'Aumeries
Co-Programmation & Développement : Marc-Olivier Méhu
Soutien technique & logistique : Manuel Goepfert

Contact : metmap@orbifly.com




SOURCES & CREDITS :

   NOAA